Hua Hin Airport
VTPH : now visible

Airfield :











YOU CAN JOIN US ON...

 
LOGIN :

Register | Disclaimer

   EN    FR    IT 

 









Legend :    VFR   Marginal VFR   IFR   Intensive IFR   Very Intensive IFR
Visi :
Ceiling :
>= 8 km
>= 3000ft
5 to 8 km
1000 to 3000 ft
1500m to 5 km
500 to 1000 ft
800 to 1500m
200 to 500 ft
< 800m
< 200 ft
Symbols :   Thunderstorms  Fog  Heavy snow  Heavy precipitations  Wind > 20 kt






- Airport Elevation : 62 ft
- IATA code : HHQ


VTPH - Hua Hin

CURRENT METAR :
  • 260400Z 14008KT 9999 FEW030 33/27 Q1010 NOSIG

EXPIRED METARs :
  • 260300Z 15005KT 120V240 9999 FEW030 32/27 Q1010 NOSIG
  • 260200Z VRB03KT 9999 FEW030 31/26 Q1010 NOSIG
  • 260100Z VRB01KT 9999 FEW030 29/25 Q1009 NOSIG
  • 260000Z VRB02KT 9999 FEW030 27/24 Q1008 NOSIG

TAF TAF VTPH
Valid from the 26 at 00:00 until the 27 at 00:00 UTC


252300Z 2600/2624 24003KT 9999 SCT030
BECMG 2603/2605 14010KT
TEMPO 2606/2610 VRB15G25KT 4000 TSRA FEW016CB SCT018 BKN100
BECMG 2613/2615 24003KT
VTBB FIR / Asia



MET'MAP, your aeronautical weather chart ! - Copyright ORBIFLY December 2007 - Disclaimer

ORBIFLY MET'MAP TEAM :

Programming & Development : Alexandra Zaïnal
Original concept : Baudouin d'Aumeries
Technical & hardware support : Manuel Goepfert
Assistance : Marc-Olivier Méhu




SOURCES & CREDITS :

   NOAA       Earth
Advisory